Casper, WY (82601)

1:24 PM MDT on July 29, 2016 (GMT -0600)
Grant Avenue | | Change Station

Elev 5164 ft 42.84 °N, 106.32 °W | Updated 33 minutes ago

Clear
Clear
88.2 °F
Feels Like 87 °F
N
2.5
Wind Variable Wind from WNW
Gusts 6.2 mph

Today
High -- | Low -- °F
--% Chance of Precip.
Yesterday
High -- | Low -- °F
Precip. -- in
Pressure 29.92 in
Visibility 10.0 miles
Clouds Clear
Heat Index 87 °F
Dew Point 57 °F
Humidity 34%
Rainfall 0.00 in
Snow Depth Not available.
5:54 AM 8:28 PM
Waning Crescent, 19% visible
METAR KCPR 291853Z VRB03KT 10SM CLR 29/07 A3012 RMK AO2 SLP130 T02890072
Pressure 29.92 in
Visibility 10.0 miles
Clouds Clear
Heat Index 87 °F
Dew Point 57 °F
Humidity 34%
Rainfall 0.00 in
Snow Depth Not available.
5:54 AM 8:28 PM
Waning Crescent, 19% visible
METAR KCPR 291853Z VRB03KT 10SM CLR 29/07 A3012 RMK AO2 SLP130 T02890072

10-Day Weather Forecast

Almanac

Astronomy

Jul. 29, 2016 Rise Set
Actual Time
Civil Twilight
Nautical Twilight
Astronomical Twilight
Moon
Length of Visible Light
Length of Day
Tomorrow will be .
, % of the Moon is Illuminated

Today's Extremes

State Highs State Lows

Community

WunderPhotos

Upload Photos

1,928,399 photos uploaded!

WunderBlog® & News

Nearby

Air Quality

  Air Quality AQ Index Pollutant
Not available.

Snow Depth

Station Depth Elevation

Earthquake Activity

City Distance Mag. Time & Date
Minimum magnitude displayed is 2.5.

Coastal Water Temperatures

Place Temperature

Stations

Nearby Weather Stations

Station Location Temp. Windchill Dew Point Humidity Wind Precip. Elev Updated Type
                   

Watches & Warnings

There are currently no watches in effect.